Terminal Aerodrome Forecast
Issued by NWS

Home | Current Version | Previous Version | Text Only | Print | Product List | Glossary On
Versions: 1 2 3 4 5 6 7 8 9 10 11 12 13 14 15 16
000
FTUS46 KHNX 282320
TAFMCE
TAF
KMCE 282320Z 2900/2924 13005KT 4SM HZ SCT200
     FM290400 16005KT 4SM BR BKN200
     FM291600 13006KT 4SM BR BKN070 PROB30 2916/2922 -RA
     FM292200 VRB03KT 4SM -RA BR BKN070=

USA.gov is the U.S. government's official web portal to all federal, state and local government web resources and services.